Time;durP1;ratioP1;P1;durP2;ratioP2;P2;SDS_P1;SDS_P2;PMS_P1;PMS_P2;Temp;Humidity;BMP_temperature;BMP_pressure;BME280_temperature;BME280_humidity;BME280_pressure;Samples;Min_cycle;Max_cycle;Signal;HPM_P1;HPM_P2
2021/01/14 00:00:38;;;;;;;5.55;4.07;;;2.00;78.40;;;1.00;62.74;93779.41;5052952;28;20265;-80
2021/01/14 00:03:11;;;;;;;6.70;3.90;;;2.00;78.30;;;1.02;62.78;93769.72;5035896;28;20214;-82
2021/01/14 00:05:41;;;;;;;6.32;4.20;;;2.00;78.40;;;1.06;62.90;93768.41;5036366;28;20220;-82
2021/01/14 00:08:09;;;;;;;5.88;4.38;;;2.10;78.40;;;1.06;62.69;93763.25;5035941;28;20677;-82
2021/01/14 00:10:36;;;;;;;4.95;4.20;;;2.10;78.50;;;1.09;62.55;93771.50;5036511;28;20302;-81
2021/01/14 00:13:08;;;;;;;6.03;3.90;;;2.10;78.50;;;1.11;62.83;93758.41;5052568;28;20196;-81
2021/01/14 00:15:36;;;;;;;6.28;3.95;;;2.20;78.50;;;1.12;62.45;93767.78;5020127;28;20220;-81
2021/01/14 00:18:03;;;;;;;5.97;3.95;;;2.20;78.30;;;1.17;62.60;93756.97;5052448;28;20228;-82
2021/01/14 00:20:30;;;;;;;4.68;4.05;;;2.20;78.40;;;1.13;62.91;93741.00;5052800;28;20220;-82
2021/01/14 00:22:57;;;;;;;5.55;4.20;;;2.20;78.50;;;1.11;62.90;93746.31;5052499;28;20188;-81
2021/01/14 00:25:24;;;;;;;9.27;3.88;;;2.20;78.50;;;1.16;63.01;93752.75;5052172;28;20658;-81
2021/01/14 00:27:51;;;;;;;5.65;4.03;;;2.20;78.60;;;1.11;62.84;93735.16;5036202;28;20192;-82
2021/01/14 00:30:33;;;;;;;5.78;4.30;;;2.30;78.50;;;1.09;63.11;93730.19;5019906;28;20219;-81
2021/01/14 00:33:02;;;;;;;7.82;4.50;;;2.20;78.40;;;1.16;62.83;93745.00;5051717;28;20202;-82
2021/01/14 00:35:28;;;;;;;5.18;3.78;;;2.20;78.40;;;1.17;62.77;93739.69;5035596;28;20224;-81
2021/01/14 00:37:56;;;;;;;5.15;4.30;;;2.30;78.50;;;1.16;62.63;93732.94;5019770;28;20269;-81
2021/01/14 00:40:27;;;;;;;4.85;3.60;;;2.20;78.40;;;1.17;62.59;93737.09;5051601;28;20212;-81
2021/01/14 00:43:05;;;;;;;4.18;3.55;;;2.20;78.30;;;1.17;62.74;93733.72;5052642;28;20206;-81
2021/01/14 00:45:32;;;;;;;7.55;3.42;;;2.20;78.30;;;1.17;62.62;93726.75;5052067;28;20224;-81
2021/01/14 00:48:01;;;;;;;5.57;3.55;;;2.20;78.20;;;1.15;62.57;93725.31;5035895;28;20393;-82
2021/01/14 00:50:28;;;;;;;5.20;3.70;;;2.30;78.30;;;1.19;62.43;93724.84;5051963;28;20224;-82
2021/01/14 00:52:55;;;;;;;5.00;3.70;;;2.30;78.20;;;1.17;62.19;93726.75;5051912;28;20609;-81
2021/01/14 00:55:23;;;;;;;5.15;3.35;;;2.30;78.20;;;1.18;62.04;93723.22;5018633;28;20219;-81
2021/01/14 00:57:50;;;;;;;4.70;3.63;;;2.30;78.20;;;1.24;62.60;93722.56;5052022;28;20192;-81
2021/01/14 01:00:20;;;;;;;5.68;3.60;;;2.30;78.10;;;1.22;62.50;93711.59;5051462;28;20219;-82
2021/01/14 01:02:53;;;;;;;5.82;3.67;;;2.30;78.10;;;1.24;62.31;93724.34;5035250;28;20730;-81
2021/01/14 01:05:21;;;;;;;5.05;3.47;;;2.30;78.10;;;1.23;62.05;93713.22;5035583;28;20235;-81
2021/01/14 01:07:57;;;;;;;5.60;3.42;;;2.30;78.10;;;1.22;61.96;93710.78;5034216;28;20220;-79
2021/01/14 01:10:26;;;;;;;4.68;3.13;;;2.30;78.10;;;1.21;62.34;93707.41;5031304;28;20211;-80
2021/01/14 01:12:56;;;;;;;5.70;3.60;;;2.30;78.00;;;1.20;62.12;93710.97;5051642;28;20203;-81
2021/01/14 01:15:25;;;;;;;5.80;3.78;;;2.40;78.10;;;1.23;62.13;93707.25;5034042;28;20320;-81
2021/01/14 01:17:52;;;;;;;4.40;3.55;;;2.30;78.00;;;1.26;61.93;93718.03;5051823;28;20200;-81
2021/01/14 01:20:19;;;;;;;5.70;3.38;;;2.30;78.00;;;1.28;62.18;93705.78;5052245;28;20211;-82
2021/01/14 01:22:46;;;;;;;6.30;3.42;;;2.30;78.90;;;1.29;62.09;93701.41;5051865;28;20199;-82
2021/01/14 01:25:13;;;;;;;5.20;3.17;;;2.30;78.10;;;1.30;62.25;93720.31;5050839;28;20694;-82
2021/01/14 01:27:40;;;;;;;5.22;3.33;;;2.30;78.10;;;1.31;62.16;93709.00;5035359;28;20219;-82
2021/01/14 01:30:08;;;;;;;5.72;3.25;;;2.40;78.10;;;1.32;62.27;93708.84;5035014;28;20242;-82
2021/01/14 01:32:36;;;;;;;5.15;3.63;;;2.30;78.00;;;1.31;62.23;93720.16;5048212;28;20262;-81
2021/01/14 01:35:04;;;;;;;5.72;2.97;;;2.40;78.20;;;1.29;62.59;93709.16;5030626;28;20235;-82
2021/01/14 01:37:31;;;;;;;4.32;3.40;;;2.40;78.30;;;1.30;62.75;93703.03;5049772;28;20196;-82
2021/01/14 01:39:59;;;;;;;4.53;3.00;;;2.40;78.30;;;1.35;62.61;93713.66;5033026;28;20392;-81
2021/01/14 01:42:25;;;;;;;5.00;3.22;;;2.40;78.40;;;1.34;62.76;93703.50;5031798;28;20297;-82
2021/01/14 01:44:52;;;;;;;4.75;3.10;;;2.40;78.40;;;1.34;63.23;93701.72;5030584;28;20231;-80
2021/01/14 01:47:19;;;;;;;3.60;2.92;;;2.40;78.50;;;1.32;63.29;93706.25;5049265;28;20254;-80
2021/01/14 01:49:46;;;;;;;5.88;3.35;;;2.40;78.50;;;1.33;62.74;93700.13;5033663;28;20641;-81
2021/01/14 01:52:13;;;;;;;5.20;3.00;;;2.40;78.50;;;1.33;63.12;93694.97;5032224;28;20697;-81
2021/01/14 01:54:41;;;;;;;5.78;3.15;;;2.40;78.60;;;1.35;63.07;93695.59;5033745;28;20231;-82
2021/01/14 01:57:09;;;;;;;3.35;2.85;;;2.40;78.60;;;1.35;63.09;93698.16;5031399;28;20204;-81
2021/01/14 01:59:36;;;;;;;4.15;2.88;;;2.40;78.60;;;1.33;63.33;93683.81;5031831;28;20220;-81
2021/01/14 02:02:24;;;;;;;5.45;3.00;;;2.40;78.60;;;1.36;62.78;93688.66;5031937;28;20634;-81
2021/01/14 02:04:53;;;;;;;4.97;3.55;;;2.40;78.60;;;1.35;63.40;93693.00;5048805;28;20271;-81
2021/01/14 02:07:31;;;;;;;4.93;3.50;;;2.40;78.70;;;1.38;63.35;93695.25;5038164;28;20245;-82
2021/01/14 02:09:58;;;;;;;3.95;3.40;;;2.50;78.70;;;1.40;63.12;93674.41;5052014;28;20227;-82
2021/01/14 02:12:40;;;;;;;4.88;3.30;;;2.50;78.70;;;1.40;63.47;93689.94;5033253;28;20196;-82
2021/01/14 02:15:08;;;;;;;5.45;3.67;;;2.40;78.80;;;1.38;63.28;93682.34;5034965;28;20211;-81
2021/01/14 02:17:35;;;;;;;4.05;3.20;;;2.50;78.90;;;1.40;63.88;93695.91;5053498;28;20492;-82
2021/01/14 02:20:03;;;;;;;5.97;3.70;;;2.50;79.00;;;1.35;63.64;93720.63;5034241;28;20220;-82
2021/01/14 02:22:37;;;;;;;6.57;3.58;;;2.50;79.00;;;1.35;63.84;93747.25;5051549;28;20200;-82
2021/01/14 02:25:16;;;;;;;4.70;3.35;;;2.50;79.10;;;1.37;63.84;93757.44;5050282;28;20226;-83
2021/01/14 02:27:47;;;;;;;4.45;3.00;;;2.40;79.20;;;1.36;63.95;93741.13;5054276;28;20364;-80
2021/01/14 02:30:14;;;;;;;3.05;2.58;;;2.50;79.20;;;1.34;64.17;93740.47;5054060;28;20228;-82
2021/01/14 02:32:44;;;;;;;3.95;2.38;;;2.40;79.20;;;1.32;63.90;93732.09;5036581;28;20204;-82
2021/01/14 02:35:11;;;;;;;2.80;2.30;;;2.40;79.20;;;1.30;64.70;93717.72;5036076;28;20744;-82
2021/01/14 02:37:38;;;;;;;2.85;2.33;;;2.40;79.20;;;1.17;64.83;93720.81;5052113;28;20368;-83
2021/01/14 02:40:06;;;;;;;4.45;2.30;;;2.40;79.20;;;1.20;64.17;93729.03;5036266;28;20621;-82
2021/01/14 02:42:33;;;;;;;3.22;2.40;;;2.40;79.20;;;1.17;64.16;93713.06;5036063;28;20295;-82
2021/01/14 02:45:00;;;;;;;2.90;2.40;;;2.30;79.20;;;1.12;64.43;93721.28;5053198;28;20827;-82
2021/01/14 02:47:30;;;;;;;3.22;2.15;;;2.30;79.10;;;1.09;64.37;93743.09;5036342;28;20250;-83
2021/01/14 02:50:05;;;;;;;2.30;2.05;;;2.20;79.10;;;1.03;64.49;93730.81;5035591;28;20270;-82
2021/01/14 02:52:36;;;;;;;3.28;2.08;;;2.20;79.10;;;1.00;64.53;93743.25;5036242;28;20200;-82
2021/01/14 02:55:05;;;;;;;2.47;1.92;;;2.30;79.10;;;0.92;64.55;93750.03;5054094;28;20655;-80
2021/01/14 02:57:32;;;;;;;1.50;1.42;;;2.10;79.00;;;0.92;64.58;93750.03;5051449;28;20531;-80
2021/01/14 03:00:00;;;;;;;2.10;1.90;;;2.10;79.00;;;0.88;64.63;93741.00;5038010;28;20231;-80
2021/01/14 03:02:29;;;;;;;2.13;1.92;;;2.10;79.00;;;0.84;64.32;93751.81;5034749;28;20192;-80
2021/01/14 03:04:55;;;;;;;3.42;1.80;;;2.00;78.90;;;0.82;64.20;93761.47;5018002;28;20220;-81
2021/01/14 03:07:22;;;;;;;2.20;1.88;;;2.10;79.00;;;0.73;64.25;93764.06;5034894;28;20290;-79
2021/01/14 03:09:49;;;;;;;2.67;1.85;;;2.00;78.90;;;0.69;64.08;93767.91;5037025;28;20285;-80
2021/01/14 03:12:16;;;;;;;2.95;1.88;;;1.90;78.80;;;0.59;64.35;93775.81;5037711;28;20250;-80
2021/01/14 03:14:42;;;;;;;8.07;3.03;;;1.90;78.90;;;0.57;64.69;93784.69;5019515;28;20238;-80
2021/01/14 03:17:09;;;;;;;2.55;1.95;;;1.80;78.80;;;0.54;64.72;93787.56;5050720;28;20306;-81
2021/01/14 03:19:36;;;;;;;4.18;2.47;;;1.80;78.80;;;0.48;64.41;93792.38;5058307;28;20580;-80
2021/01/14 03:22:03;;;;;;;3.78;2.25;;;1.70;78.70;;;0.44;64.54;93798.84;5034075;28;20231;-80
2021/01/14 03:24:29;;;;;;;3.38;2.40;;;1.70;78.80;;;0.42;64.86;93797.38;5050245;28;20741;-80
2021/01/14 03:26:56;;;;;;;2.47;2.28;;;1.70;78.90;;;0.41;64.87;93803.50;5054012;28;20269;-81
2021/01/14 03:29:23;;;;;;;3.58;2.25;;;1.60;79.00;;;0.36;64.67;93798.03;5036952;28;20307;-80
2021/01/14 03:31:50;;;;;;;3.58;2.03;;;1.60;79.10;;;0.37;64.67;93807.38;5054131;28;20645;-80
2021/01/14 03:34:17;;;;;;;3.72;2.28;;;1.60;79.10;;;0.37;64.67;93809.97;5037166;28;20250;-81
2021/01/14 03:36:56;;;;;;;3.45;2.25;;;1.60;79.20;;;0.34;64.58;93815.41;5053693;28;20715;-80
2021/01/14 03:39:28;;;;;;;2.58;2.08;;;1.60;79.10;;;0.31;64.34;93825.06;5037620;28;20773;-82
2021/01/14 03:41:56;;;;;;;2.10;1.83;;;1.50;79.10;;;0.27;64.83;93816.03;5036882;28;20200;-81
2021/01/14 03:44:24;;;;;;;2.10;1.83;;;1.50;79.00;;;0.18;64.77;93811.00;5047462;28;20249;-82
2021/01/14 03:46:51;;;;;;;2.85;1.80;;;1.50;79.00;;;0.22;64.45;93840.66;5036406;28;20243;-82
2021/01/14 03:49:19;;;;;;;2.28;1.80;;;1.50;78.80;;;0.15;64.12;93837.91;5037064;28;20195;-82
2021/01/14 03:51:48;;;;;;;2.30;2.10;;;1.50;78.60;;;0.08;64.46;93829.19;5020733;28;20231;-82
2021/01/14 03:54:20;;;;;;;2.70;1.90;;;1.40;78.50;;;0.02;64.08;93835.75;5052928;28;20573;-81
2021/01/14 03:56:48;;;;;;;4.38;1.73;;;1.40;78.50;;;-0.09;64.10;93826.50;5037753;28;20290;-82
2021/01/14 03:59:14;;;;;;;2.15;1.60;;;1.30;78.50;;;-0.15;63.88;93834.06;5053512;28;20262;-82
2021/01/14 04:01:43;;;;;;;2.38;1.80;;;1.20;78.30;;;-0.25;64.07;93831.59;5052607;28;20228;-81
2021/01/14 04:04:10;;;;;;;1.80;1.60;;;1.20;78.40;;;-0.31;64.13;93837.34;5036845;28;20600;-82
2021/01/14 04:06:39;;;;;;;3.53;1.67;;;1.10;78.30;;;-0.39;64.05;93836.34;5053093;28;20227;-82
2021/01/14 04:09:07;;;;;;;2.72;1.40;;;1.10;78.30;;;-0.46;64.17;93824.19;5035849;28;20204;-80
2021/01/14 04:11:34;;;;;;;2.08;1.50;;;1.00;78.30;;;-0.54;64.03;93835.25;5053099;28;20235;-81
2021/01/14 04:14:00;;;;;;;2.30;1.73;;;0.90;78.20;;;-0.60;64.69;93839.22;5069642;28;20239;-81
2021/01/14 04:16:27;;;;;;;2.08;1.70;;;0.90;78.30;;;-0.61;64.61;93845.38;5050984;28;20250;-81
2021/01/14 04:18:54;;;;;;;2.10;1.70;;;0.80;78.40;;;-0.59;64.72;93842.63;5036765;28;20203;-81
2021/01/14 04:21:21;;;;;;;1.70;1.60;;;0.80;78.60;;;-0.64;64.82;93835.34;5052967;28;20220;-81
2021/01/14 04:23:47;;;;;;;3.53;1.48;;;0.70;78.70;;;-0.58;64.91;93839.91;5036293;28;20219;-83
2021/01/14 04:26:17;;;;;;;1.65;1.55;;;0.70;78.90;;;-0.56;64.82;93850.03;5051836;28;20246;-83
2021/01/14 04:28:44;;;;;;;1.70;1.60;;;0.70;79.00;;;-0.55;64.45;93842.19;5052858;28;20203;-81
2021/01/14 04:31:13;;;;;;;1.92;1.70;;;0.70;79.00;;;-0.54;64.71;93848.13;5019375;28;20235;-80
2021/01/14 04:33:57;;;;;;;1.45;1.35;;;0.70;79.00;;;-0.53;64.77;93860.06;5054880;28;20276;-82
2021/01/14 04:36:25;;;;;;;1.45;1.35;;;0.70;79.00;;;-0.54;64.67;93845.56;5015326;28;20228;-82
2021/01/14 04:38:51;;;;;;;1.80;1.50;;;0.70;78.90;;;-0.53;64.39;93844.59;5044481;28;20370;-83
2021/01/14 04:41:20;;;;;;;3.05;1.40;;;0.70;78.90;;;-0.55;64.29;93843.94;5066399;28;20747;-82
2021/01/14 04:43:49;;;;;;;1.50;1.40;;;0.70;78.90;;;-0.53;64.37;93847.19;5036260;28;20597;-82
2021/01/14 04:46:16;;;;;;;1.40;1.30;;;0.70;78.90;;;-0.59;64.22;93846.00;5035229;28;20240;-83
2021/01/14 04:48:47;;;;;;;2.05;1.70;;;0.70;78.80;;;-0.66;64.48;93850.13;5052498;28;20210;-82
2021/01/14 04:51:16;;;;;;;2.10;1.50;;;0.70;78.80;;;-0.73;64.65;93841.38;5052135;28;20227;-82
2021/01/14 04:53:48;;;;;;;2.53;1.77;;;0.70;78.80;;;-0.68;64.77;93840.00;5051968;28;20189;-82
2021/01/14 04:56:18;;;;;;;2.70;1.88;;;0.70;78.90;;;-0.69;64.80;93847.88;5035155;28;20215;-83
2021/01/14 04:58:49;;;;;;;2.85;1.83;;;0.60;78.90;;;-0.76;64.94;93844.28;5035943;28;20199;-83
2021/01/14 05:01:24;;;;;;;2.42;1.50;;;0.60;78.90;;;-0.67;65.04;93861.41;5051012;28;20749;-83
2021/01/14 05:03:54;;;;;;;1.67;1.55;;;0.60;79.10;;;-0.63;65.17;93856.75;5049762;28;20244;-83
2021/01/14 05:06:26;;;;;;;3.67;1.60;;;0.60;79.10;;;-0.64;64.91;93866.25;5017342;28;20685;-83
2021/01/14 05:09:07;;;;;;;2.55;1.40;;;0.60;79.10;;;-0.62;65.09;93864.34;5049058;28;20188;-83
2021/01/14 05:11:45;;;;;;;1.85;1.67;;;0.60;79.10;;;-0.61;65.00;93857.41;5034109;28;20187;-83
2021/01/14 05:14:12;;;;;;;2.00;1.55;;;0.70;79.30;;;-0.58;64.84;93857.94;5032832;28;20206;-82
2021/01/14 05:16:40;;;;;;;2.45;1.80;;;0.60;79.30;;;-0.55;64.95;93867.94;5049113;28;20196;-83
2021/01/14 05:19:07;;;;;;;2.90;1.65;;;0.60;79.20;;;-0.51;64.60;93869.25;5033057;28;20204;-82
2021/01/14 05:21:36;;;;;;;2.70;1.50;;;0.60;79.20;;;-0.51;64.87;93882.13;5051016;28;20203;-83
2021/01/14 05:24:16;;;;;;;3.72;1.50;;;0.60;79.20;;;-0.50;64.34;93876.03;5033414;28;20201;-83
2021/01/14 05:26:44;;;;;;;3.40;1.40;;;0.60;79.00;;;-0.45;64.43;93877.34;5050348;28;20669;-82
2021/01/14 05:29:17;;;;;;;2.67;1.70;;;0.70;79.00;;;-0.45;64.06;93877.34;5034965;28;20188;-83
2021/01/14 05:31:45;;;;;;;2.03;1.30;;;0.70;78.90;;;-0.42;63.91;93883.00;5035246;28;20204;-83
2021/01/14 05:34:14;;;;;;;2.33;1.55;;;0.70;78.90;;;-0.43;63.72;93876.22;5035221;28;20192;-83
2021/01/14 05:37:03;;;;;;;2.03;1.45;;;0.70;78.70;;;-0.45;63.50;93877.34;5051033;28;20735;-82
2021/01/14 05:39:30;;;;;;;2.95;1.50;;;0.70;78.50;;;-0.43;63.18;93883.94;5034432;28;20220;-82
2021/01/14 05:42:08;;;;;;;1.63;1.48;;;0.70;78.50;;;-0.45;63.02;93867.84;5068246;28;20199;-83
2021/01/14 05:44:38;;;;;;;2.10;1.40;;;0.70;78.20;;;-0.42;62.92;93885.56;5051220;28;20219;-82
2021/01/14 05:47:37;;;;;;;1.95;1.52;;;0.80;78.20;;;-0.40;62.73;93885.44;5033942;28;20215;-83
2021/01/14 05:50:07;;;;;;;3.10;1.67;;;0.80;78.20;;;-0.41;62.49;93892.34;5008141;28;20247;-84
2021/01/14 05:52:35;;;;;;;3.65;1.75;;;0.80;78.10;;;-0.40;62.38;93890.59;5051896;28;20199;-83
2021/01/14 05:55:10;;;;;;;3.53;1.40;;;0.70;77.60;;;-0.39;62.21;93885.28;5051611;28;20245;-83
2021/01/14 05:57:40;;;;;;;2.50;1.70;;;0.80;77.90;;;-0.39;62.38;93892.19;5050974;28;20285;-81
2021/01/14 06:00:13;;;;;;;1.63;1.40;;;0.80;77.90;;;-0.41;62.00;93896.69;5050511;28;20222;-83
2021/01/14 06:02:40;;;;;;;3.90;1.55;;;0.80;77.60;;;-0.41;61.72;93900.06;5049203;28;20214;-83
2021/01/14 06:05:32;;;;;;;3.13;1.88;;;0.80;77.60;;;-0.43;61.33;93896.03;5034419;28;20678;-83
2021/01/14 06:08:02;;;;;;;6.05;1.88;;;0.80;77.40;;;-0.42;60.99;93895.88;5034459;28;20235;-83
2021/01/14 06:10:37;;;;;;;3.00;1.45;;;0.80;77.40;;;-0.43;61.28;93898.59;5018616;28;20220;-83
2021/01/14 06:13:04;;;;;;;4.43;1.50;;;0.70;77.20;;;-0.40;61.73;93901.69;5035257;28;20645;-83
2021/01/14 06:15:31;;;;;;;4.13;1.88;;;0.70;77.40;;;-0.37;61.68;93898.81;5034139;28;20297;-84
2021/01/14 06:18:01;;;;;;;4.00;2.08;;;0.80;77.50;;;-0.36;61.68;93908.16;5050438;28;20204;-83
2021/01/14 06:20:28;;;;;;;3.30;1.80;;;0.70;77.40;;;-0.36;61.84;93900.44;5034613;28;20219;-83
2021/01/14 06:22:58;;;;;;;2.60;1.35;;;0.80;77.50;;;-0.45;61.69;93911.66;5050650;28;20609;-82
2021/01/14 06:25:26;;;;;;;6.80;2.10;;;0.80;77.50;;;-0.40;61.77;93926.66;5050926;28;20713;-81
2021/01/14 06:27:56;;;;;;;4.55;1.85;;;0.80;77.50;;;-0.46;62.01;93915.19;5034578;28;20250;-81
2021/01/14 06:30:23;;;;;;;4.57;2.10;;;0.70;77.50;;;-0.41;62.14;93928.41;5034689;28;20227;-81
2021/01/14 06:33:04;;;;;;;2.30;1.67;;;0.80;77.70;;;-0.41;62.46;93925.84;5050791;28;20208;-82
2021/01/14 06:35:33;;;;;;;3.00;1.85;;;0.80;77.70;;;-0.43;62.80;93932.91;5018291;28;20227;-82
2021/01/14 06:38:05;;;;;;;6.05;1.75;;;0.80;77.90;;;-0.46;62.93;93934.94;5034972;28;20547;-83
2021/01/14 06:40:41;;;;;;;3.13;1.77;;;0.80;78.00;;;-0.46;63.26;93937.53;5033284;28;20216;-83
2021/01/14 06:43:13;;;;;;;4.72;2.15;;;0.80;78.20;;;-0.52;63.37;93944.91;5051078;28;20450;-83
2021/01/14 06:45:55;;;;;;;2.15;1.80;;;0.70;78.10;;;-0.53;63.94;93940.69;5051388;28;20777;-82
2021/01/14 06:48:30;;;;;;;4.22;1.70;;;0.70;78.20;;;-0.53;64.04;93951.00;5033707;28;20303;-83
2021/01/14 06:51:04;;;;;;;2.65;1.70;;;0.70;78.40;;;-0.52;64.17;93946.69;5032975;28;20231;-83
2021/01/14 06:53:31;;;;;;;4.82;1.77;;;0.70;78.50;;;-0.54;64.40;93938.28;5033851;28;20236;-83
2021/01/14 06:55:59;;;;;;;4.60;1.80;;;0.70;78.60;;;-0.51;64.34;93943.16;5050074;28;20740;-82
2021/01/14 06:58:29;;;;;;;2.40;1.50;;;0.70;78.70;;;-0.54;64.47;93944.25;5034054;28;20223;-82
2021/01/14 07:01:01;;;;;;;5.18;1.65;;;0.70;78.70;;;-0.47;64.36;93948.81;5047056;28;20220;-81
2021/01/14 07:03:55;;;;;;;3.33;1.70;;;0.70;78.80;;;-0.50;64.49;93949.91;5030920;28;20280;-84
2021/01/14 07:06:27;;;;;;;2.75;1.73;;;0.70;78.80;;;-0.44;64.53;93945.94;5037788;28;20277;-82
2021/01/14 07:09:13;;;;;;;2.75;1.90;;;0.70;78.80;;;-0.41;64.55;93955.94;5053945;28;20188;-82
2021/01/14 07:11:44;;;;;;;3.60;1.73;;;0.70;78.90;;;-0.44;64.96;93957.06;5035176;28;20209;-82
2021/01/14 07:14:25;;;;;;;3.95;2.00;;;0.80;79.10;;;-0.42;64.52;93964.63;5034403;28;20184;-82
2021/01/14 07:16:59;;;;;;;4.35;1.80;;;0.80;79.00;;;-0.37;64.93;93973.53;5053246;28;20204;-83
2021/01/14 07:19:26;;;;;;;3.75;1.95;;;0.80;79.10;;;-0.33;64.66;93982.59;5049787;28;20279;-83
2021/01/14 07:21:53;;;;;;;3.15;1.73;;;0.80;79.20;;;-0.29;64.71;93979.69;5034171;28;20200;-82
2021/01/14 07:24:29;;;;;;;4.72;2.10;;;0.80;79.20;;;-0.26;64.80;93989.72;5030278;28;20231;-83
2021/01/14 07:27:01;;;;;;;4.25;1.95;;;0.80;79.30;;;-0.26;64.93;93992.31;5064802;28;20224;-83
2021/01/14 07:29:31;;;;;;;2.67;1.90;;;0.80;79.40;;;-0.28;65.02;93986.47;5050522;28;20216;-83
2021/01/14 07:32:00;;;;;;;5.38;2.00;;;0.80;79.40;;;-0.24;65.06;93987.81;5017797;28;20291;-83
2021/01/14 07:34:44;;;;;;;5.32;2.20;;;0.90;79.50;;;-0.27;64.99;93986.34;5052778;28;20220;-83
2021/01/14 07:37:17;;;;;;;3.55;1.83;;;0.90;79.50;;;-0.22;65.22;93988.47;5034947;28;20220;-83
2021/01/14 07:39:58;;;;;;;4.68;2.10;;;0.90;79.50;;;-0.23;65.28;93987.66;5034769;28;20216;-83
2021/01/14 07:42:32;;;;;;;4.20;1.80;;;0.90;79.50;;;-0.24;65.17;93991.19;5018256;28;20200;-82
2021/01/14 07:45:02;;;;;;;2.55;1.90;;;0.90;79.50;;;-0.21;65.40;93982.34;5031010;28;20306;-82
2021/01/14 07:47:36;;;;;;;3.45;2.00;;;0.90;79.60;;;-0.16;65.27;93990.44;5039992;28;20212;-82
2021/01/14 07:50:25;;;;;;;4.28;2.00;;;1.00;79.60;;;-0.14;65.12;93993.69;5050319;28;20214;-83
2021/01/14 07:52:57;;;;;;;2.92;1.80;;;1.00;79.40;;;-0.19;65.54;93983.81;5034565;28;20207;-83
2021/01/14 07:55:34;;;;;;;3.22;1.80;;;1.00;79.60;;;-0.11;65.17;93988.25;5031993;28;20681;-82
2021/01/14 07:58:21;;;;;;;4.70;2.10;;;1.00;79.70;;;-0.05;65.49;94002.28;5040968;28;20208;-83
2021/01/14 08:01:08;;;;;;;3.97;1.70;;;1.00;79.60;;;-0.05;65.41;94010.03;5051182;28;20219;-82
2021/01/14 08:03:40;;;;;;;3.08;1.77;;;1.00;79.50;;;-0.03;65.08;94008.09;5048572;28;20655;-83
2021/01/14 08:06:19;;;;;;;4.15;1.80;;;1.10;79.60;;;-0.04;65.06;94012.47;5047610;28;20232;-82
2021/01/14 08:09:00;;;;;;;2.42;1.60;;;1.10;79.60;;;-0.02;64.86;94005.38;5066896;28;20184;-83
2021/01/14 08:11:29;;;;;;;2.90;1.70;;;1.10;79.50;;;-0.01;65.24;93998.47;5068104;28;20216;-83
2021/01/14 08:14:12;;;;;;;4.57;1.90;;;1.10;79.60;;;0.03;65.16;93998.97;5036784;28;20258;-84
2021/01/14 08:16:47;;;;;;;2.13;1.77;;;1.10;79.70;;;0.06;65.61;94025.28;5066097;28;20268;-84
2021/01/14 08:19:34;;;;;;;2.50;1.80;;;1.10;79.80;;;0.07;65.46;93995.94;5038663;28;20695;-83
2021/01/14 08:22:12;;;;;;;2.40;1.88;;;1.10;79.80;;;0.17;65.34;94015.66;5073798;28;20684;-83
2021/01/14 08:24:53;;;;;;;2.42;1.83;;;1.10;79.70;;;0.23;65.66;94018.47;5033332;28;20575;-82
2021/01/14 08:27:27;;;;;;;5.22;1.90;;;1.20;79.80;;;0.27;65.58;94009.47;5050642;28;20223;-82
2021/01/14 08:30:07;;;;;;;2.28;1.83;;;1.20;79.80;;;0.32;65.43;94025.28;5063876;28;20249;-83
2021/01/14 08:32:58;;;;;;;3.90;1.80;;;1.20;79.70;;;0.32;65.61;94019.34;5064715;28;20254;-82
2021/01/14 08:35:34;;;;;;;3.67;1.92;;;1.30;79.80;;;0.34;65.67;94032.06;5076023;28;20211;-83
2021/01/14 08:38:13;;;;;;;3.50;1.75;;;1.30;80.00;;;0.27;65.63;94014.63;5052018;28;20727;-82
2021/01/14 08:40:42;;;;;;;3.33;2.13;;;1.30;79.60;;;0.38;65.46;94021.31;5063581;28;20720;-82
2021/01/14 08:43:14;;;;;;;1.88;1.70;;;1.30;79.80;;;0.42;65.55;94034.72;5052012;28;20228;-83
2021/01/14 08:45:53;;;;;;;1.55;1.45;;;1.40;80.00;;;0.46;66.01;94036.00;5044396;28;20219;-83
2021/01/14 08:48:25;;;;;;;3.10;1.65;;;1.40;80.00;;;0.51;65.36;94062.16;5035446;28;20611;-83
2021/01/14 08:50:55;;;;;;;3.75;1.95;;;1.40;80.00;;;0.54;65.45;94058.47;5049809;28;20265;-82
2021/01/14 08:53:27;;;;;;;2.72;2.20;;;1.50;80.00;;;0.54;65.18;94055.88;5077151;28;20735;-83
2021/01/14 08:56:02;;;;;;;2.50;2.03;;;1.50;79.70;;;0.53;65.28;94078.31;5050030;28;20566;-82
2021/01/14 08:58:42;;;;;;;2.35;1.75;;;1.50;79.80;;;0.55;65.44;94073.81;5077799;28;20196;-83
2021/01/14 09:01:24;;;;;;;3.38;1.80;;;1.50;79.00;;;0.55;65.17;94081.56;5034292;28;20216;-82
2021/01/14 09:03:54;;;;;;;3.60;1.80;;;1.50;79.70;;;0.62;65.48;94097.25;5053800;28;20247;-83
2021/01/14 09:06:39;;;;;;;2.55;1.70;;;1.60;80.10;;;0.74;65.37;94095.22;5045634;28;20301;-83
2021/01/14 09:09:15;;;;;;;3.33;2.00;;;1.60;80.00;;;0.84;65.41;94114.00;5050423;28;20529;-83
2021/01/14 09:11:42;;;;;;;2.40;1.75;;;1.80;80.10;;;0.88;65.32;94096.44;5051091;28;20199;-81
2021/01/14 09:14:11;;;;;;;2.10;1.77;;;1.70;80.20;;;0.92;65.08;94108.88;5045972;28;20199;-82
2021/01/14 09:16:41;;;;;;;1.77;1.67;;;1.80;80.10;;;0.96;65.34;94099.06;5051637;28;20200;-80
2021/01/14 09:19:13;;;;;;;4.65;1.80;;;1.80;80.10;;;0.99;65.55;94119.44;5014778;28;20621;-80
2021/01/14 09:21:41;;;;;;;5.55;1.98;;;1.80;80.30;;;1.13;65.63;94123.19;5037915;28;20201;-83
2021/01/14 09:24:13;;;;;;;3.80;1.92;;;1.90;80.20;;;1.16;65.38;94142.75;5051906;28;20192;-83
2021/01/14 09:26:42;;;;;;;1.92;1.73;;;2.00;80.20;;;1.19;65.71;94139.88;5042574;28;20659;-83
2021/01/14 09:29:11;;;;;;;2.00;1.80;;;2.00;80.40;;;1.19;65.70;94134.72;5033031;28;20197;-82
2021/01/14 09:31:42;;;;;;;1.85;1.65;;;2.00;80.20;;;1.20;65.39;94141.50;5034008;28;20196;-82
2021/01/14 09:34:10;;;;;;;2.67;1.92;;;2.10;80.10;;;1.23;65.27;94136.00;5035471;28;20180;-83
2021/01/14 09:36:37;;;;;;;3.47;1.70;;;2.10;80.00;;;1.27;65.53;94153.63;5019466;28;20246;-83
2021/01/14 09:39:14;;;;;;;2.60;1.75;;;2.10;80.00;;;1.28;65.13;94160.44;5051215;28;20206;-83
2021/01/14 09:41:41;;;;;;;1.88;1.77;;;2.10;79.70;;;1.25;64.89;94160.72;5033148;28;20245;-82
2021/01/14 09:44:13;;;;;;;2.05;1.60;;;2.20;79.80;;;1.23;65.04;94175.59;5017311;28;20238;-82
2021/01/14 09:46:44;;;;;;;2.42;1.73;;;2.20;79.70;;;1.30;65.03;94191.25;5051606;28;20222;-82
2021/01/14 09:49:19;;;;;;;3.35;1.77;;;2.20;79.80;;;1.28;64.85;94188.00;5051559;28;20688;-82
2021/01/14 09:51:47;;;;;;;1.60;1.50;;;2.20;79.70;;;1.30;65.15;94199.03;5050870;28;20198;-82
2021/01/14 09:54:13;;;;;;;1.77;1.65;;;2.20;79.80;;;1.34;64.65;94222.78;5051758;28;20203;-82
2021/01/14 09:57:09;;;;;;;4.22;1.98;;;2.20;79.80;;;1.31;64.87;94202.41;5018204;28;20621;-83
2021/01/14 09:59:41;;;;;;;1.98;1.70;;;2.20;79.40;;;1.30;64.80;94216.31;5048098;28;20596;-81
2021/01/14 10:02:31;;;;;;;1.77;1.67;;;2.20;79.30;;;1.24;64.76;94222.88;5051155;28;20192;-83
2021/01/14 10:05:02;;;;;;;2.33;1.90;;;2.20;79.10;;;1.21;64.51;94224.00;5031434;28;20698;-83
2021/01/14 10:07:36;;;;;;;3.85;1.70;;;2.20;79.50;;;1.20;64.81;94235.28;5032534;28;20284;-82
2021/01/14 10:10:03;;;;;;;2.47;1.77;;;2.20;79.50;;;1.18;65.17;94233.81;5049583;28;20297;-83
2021/01/14 10:12:32;;;;;;;2.80;2.05;;;2.20;79.60;;;1.17;64.71;94238.16;5034651;28;20192;-82
2021/01/14 10:15:13;;;;;;;2.28;1.88;;;2.20;79.30;;;1.19;65.09;94241.41;5031731;28;20234;-82
2021/01/14 10:17:41;;;;;;;2.95;2.08;;;2.20;79.30;;;1.19;64.93;94246.56;5029104;28;20629;-83
2021/01/14 10:20:13;;;;;;;2.30;2.10;;;2.20;79.40;;;1.20;65.09;94247.41;5046622;28;20212;-82
2021/01/14 10:22:52;;;;;;;3.05;2.13;;;2.10;79.50;;;1.20;65.04;94244.81;5045274;28;20206;-82
2021/01/14 10:25:20;;;;;;;3.33;2.30;;;2.10;79.60;;;1.13;65.02;94254.91;5050987;28;20243;-83
2021/01/14 10:28:07;;;;;;;5.40;2.33;;;2.10;79.10;;;1.15;64.75;94253.00;5031321;28;20215;-82
2021/01/14 10:30:40;;;;;;;2.47;2.10;;;2.10;79.00;;;1.23;64.86;94265.16;5038643;28;20230;-83
2021/01/14 10:33:08;;;;;;;4.53;2.60;;;2.10;79.40;;;1.28;64.66;94268.09;5047548;28;20535;-83
2021/01/14 10:35:36;;;;;;;3.03;2.47;;;2.10;79.70;;;1.22;64.90;94264.38;5052671;28;20238;-81
2021/01/14 10:38:15;;;;;;;2.80;2.47;;;2.20;79.40;;;1.31;64.98;94274.72;5077640;28;20288;-81
2021/01/14 10:40:51;;;;;;;2.90;2.40;;;2.20;79.40;;;1.32;65.29;94284.94;5034568;28;20749;-80
2021/01/14 10:43:34;;;;;;;3.80;2.47;;;2.30;79.80;;;1.31;64.72;94277.31;5039627;28;20654;-82
2021/01/14 10:46:03;;;;;;;4.93;2.30;;;2.20;79.50;;;1.35;64.75;94287.22;5048269;28;20224;-82
2021/01/14 10:48:38;;;;;;;4.97;2.60;;;2.20;79.80;;;1.42;64.90;94292.59;5037782;28;20215;-82